sensor_id;sensor_type;location;lat;lon;timestamp;temperature;humidity
29003;DHT22;16102;57.138;-2.118;2022-12-05T00:03:46;6.30;1.00
29003;DHT22;16102;57.138;-2.118;2022-12-05T00:06:14;6.30;1.00
29003;DHT22;16102;57.138;-2.118;2022-12-05T00:08:41;6.30;1.00
29003;DHT22;16102;57.138;-2.118;2022-12-05T00:11:13;6.20;1.00
29003;DHT22;16102;57.138;-2.118;2022-12-05T00:13:41;6.20;1.00
29003;DHT22;16102;57.138;-2.118;2022-12-05T00:16:13;6.20;1.00
29003;DHT22;16102;57.138;-2.118;2022-12-05T00:18:41;6.20;1.00
29003;DHT22;16102;57.138;-2.118;2022-12-05T00:21:15;6.10;1.00
29003;DHT22;16102;57.138;-2.118;2022-12-05T00:23:43;6.20;1.00
29003;DHT22;16102;57.138;-2.118;2022-12-05T00:26:11;6.20;1.00
29003;DHT22;16102;57.138;-2.118;2022-12-05T00:28:38;6.20;1.00
29003;DHT22;16102;57.138;-2.118;2022-12-05T00:31:08;6.30;1.00
29003;DHT22;16102;57.138;-2.118;2022-12-05T00:33:35;6.30;1.00
29003;DHT22;16102;57.138;-2.118;2022-12-05T00:36:04;6.30;1.00
29003;DHT22;16102;57.138;-2.118;2022-12-05T00:38:31;6.20;1.00
29003;DHT22;16102;57.138;-2.118;2022-12-05T00:41:23;6.20;1.00
29003;DHT22;16102;57.138;-2.118;2022-12-05T00:43:51;6.20;1.00
29003;DHT22;16102;57.138;-2.118;2022-12-05T00:46:23;6.20;1.00
29003;DHT22;16102;57.138;-2.118;2022-12-05T00:48:55;6.10;1.00
29003;DHT22;16102;57.138;-2.118;2022-12-05T00:51:31;6.10;1.00
29003;DHT22;16102;57.138;-2.118;2022-12-05T00:53:59;6.10;1.00
29003;DHT22;16102;57.138;-2.118;2022-12-05T00:56:27;6.10;3.50
29003;DHT22;16102;57.138;-2.118;2022-12-05T00:58:56;6.00;4.30
29003;DHT22;16102;57.138;-2.118;2022-12-05T01:01:24;6.10;11.20
29003;DHT22;16102;57.138;-2.118;2022-12-05T01:03:54;6.10;19.50
29003;DHT22;16102;57.138;-2.118;2022-12-05T01:06:23;6.20;26.40
29003;DHT22;16102;57.138;-2.118;2022-12-05T01:08:52;6.20;12.00
29003;DHT22;16102;57.138;-2.118;2022-12-05T01:11:20;6.20;2.90
29003;DHT22;16102;57.138;-2.118;2022-12-05T01:13:49;6.30;3.30
29003;DHT22;16102;57.138;-2.118;2022-12-05T01:16:21;6.30;9.60
29003;DHT22;16102;57.138;-2.118;2022-12-05T01:18:49;6.30;14.90
29003;DHT22;16102;57.138;-2.118;2022-12-05T01:21:16;6.20;8.50
29003;DHT22;16102;57.138;-2.118;2022-12-05T01:23:43;6.20;6.10
29003;DHT22;16102;57.138;-2.118;2022-12-05T01:26:12;6.20;11.50
29003;DHT22;16102;57.138;-2.118;2022-12-05T01:28:40;6.10;12.40
29003;DHT22;16102;57.138;-2.118;2022-12-05T01:33:51;6.20;1.00
29003;DHT22;16102;57.138;-2.118;2022-12-05T01:36:20;6.20;1.00
29003;DHT22;16102;57.138;-2.118;2022-12-05T01:38:47;6.20;1.00
29003;DHT22;16102;57.138;-2.118;2022-12-05T01:41:17;6.20;1.00
29003;DHT22;16102;57.138;-2.118;2022-12-05T01:44:05;6.30;1.00
29003;DHT22;16102;57.138;-2.118;2022-12-05T01:46:37;6.30;1.00
29003;DHT22;16102;57.138;-2.118;2022-12-05T01:51:47;6.30;1.00
29003;DHT22;16102;57.138;-2.118;2022-12-05T01:54:15;6.30;1.00
29003;DHT22;16102;57.138;-2.118;2022-12-05T01:56:47;6.30;1.00
29003;DHT22;16102;57.138;-2.118;2022-12-05T01:59:16;6.30;1.00
29003;DHT22;16102;57.138;-2.118;2022-12-05T02:01:44;6.30;1.00
29003;DHT22;16102;57.138;-2.118;2022-12-05T02:04:11;6.30;1.00
29003;DHT22;16102;57.138;-2.118;2022-12-05T02:06:38;6.30;1.00
29003;DHT22;16102;57.138;-2.118;2022-12-05T02:09:05;6.30;1.00
29003;DHT22;16102;57.138;-2.118;2022-12-05T02:11:33;6.30;1.00
29003;DHT22;16102;57.138;-2.118;2022-12-05T02:17:18;6.30;1.00
29003;DHT22;16102;57.138;-2.118;2022-12-05T02:33:47;6.30;1.00
29003;DHT22;16102;57.138;-2.118;2022-12-05T02:41:54;6.30;1.00
29003;DHT22;16102;57.138;-2.118;2022-12-05T02:44:51;6.20;1.00
29003;DHT22;16102;57.138;-2.118;2022-12-05T02:47:17;6.20;1.00
29003;DHT22;16102;57.138;-2.118;2022-12-05T02:49:46;6.20;1.00
29003;DHT22;16102;57.138;-2.118;2022-12-05T02:52:16;6.20;1.00
29003;DHT22;16102;57.138;-2.118;2022-12-05T02:54:45;6.20;1.00
29003;DHT22;16102;57.138;-2.118;2022-12-05T02:57:14;6.20;1.00
29003;DHT22;16102;57.138;-2.118;2022-12-05T02:59:42;6.20;1.00
29003;DHT22;16102;57.138;-2.118;2022-12-05T03:02:22;6.10;1.00
29003;DHT22;16102;57.138;-2.118;2022-12-05T03:04:50;6.10;1.00
29003;DHT22;16102;57.138;-2.118;2022-12-05T03:07:18;6.10;1.00
29003;DHT22;16102;57.138;-2.118;2022-12-05T03:09:54;6.10;1.00
29003;DHT22;16102;57.138;-2.118;2022-12-05T03:12:27;6.10;1.00
29003;DHT22;16102;57.138;-2.118;2022-12-05T03:15:00;6.00;1.00
29003;DHT22;16102;57.138;-2.118;2022-12-05T03:17:34;6.00;1.00
29003;DHT22;16102;57.138;-2.118;2022-12-05T03:22:52;6.10;1.00
29003;DHT22;16102;57.138;-2.118;2022-12-05T03:25:24;6.20;1.00
29003;DHT22;16102;57.138;-2.118;2022-12-05T03:31:04;6.20;1.00
29003;DHT22;16102;57.138;-2.118;2022-12-05T03:33:37;6.20;1.00
29003;DHT22;16102;57.138;-2.118;2022-12-05T03:36:22;6.20;1.00
29003;DHT22;16102;57.138;-2.118;2022-12-05T03:39:07;6.20;1.00
29003;DHT22;16102;57.138;-2.118;2022-12-05T03:41:41;6.20;1.00
29003;DHT22;16102;57.138;-2.118;2022-12-05T03:47:04;6.30;1.00
29003;DHT22;16102;57.138;-2.118;2022-12-05T03:49:38;6.20;1.00
29003;DHT22;16102;57.138;-2.118;2022-12-05T03:52:19;6.20;1.00
29003;DHT22;16102;57.138;-2.118;2022-12-05T03:54:54;6.20;1.00
29003;DHT22;16102;57.138;-2.118;2022-12-05T03:57:29;6.20;1.00
29003;DHT22;16102;57.138;-2.118;2022-12-05T04:02:46;6.10;1.00
29003;DHT22;16102;57.138;-2.118;2022-12-05T04:05:17;6.10;1.00
29003;DHT22;16102;57.138;-2.118;2022-12-05T04:07:46;6.00;1.00
29003;DHT22;16102;57.138;-2.118;2022-12-05T04:10:19;6.00;1.00
29003;DHT22;16102;57.138;-2.118;2022-12-05T04:12:51;6.00;1.00
29003;DHT22;16102;57.138;-2.118;2022-12-05T04:15:28;5.90;1.00
29003;DHT22;16102;57.138;-2.118;2022-12-05T04:18:22;6.00;1.00
29003;DHT22;16102;57.138;-2.118;2022-12-05T04:20:50;5.90;1.00
29003;DHT22;16102;57.138;-2.118;2022-12-05T04:23:36;5.90;1.00
29003;DHT22;16102;57.138;-2.118;2022-12-05T04:28:35;6.00;1.00
29003;DHT22;16102;57.138;-2.118;2022-12-05T04:31:10;6.10;1.00
29003;DHT22;16102;57.138;-2.118;2022-12-05T04:38:50;6.10;1.00
29003;DHT22;16102;57.138;-2.118;2022-12-05T04:41:27;6.20;1.00
29003;DHT22;16102;57.138;-2.118;2022-12-05T04:44:00;6.20;1.00
29003;DHT22;16102;57.138;-2.118;2022-12-05T04:46:28;6.20;1.00
29003;DHT22;16102;57.138;-2.118;2022-12-05T04:48:58;6.20;1.00
29003;DHT22;16102;57.138;-2.118;2022-12-05T04:51:30;6.20;1.00
29003;DHT22;16102;57.138;-2.118;2022-12-05T04:54:14;6.20;1.00
29003;DHT22;16102;57.138;-2.118;2022-12-05T04:56:44;6.10;1.00
29003;DHT22;16102;57.138;-2.118;2022-12-05T04:59:12;6.10;1.00
29003;DHT22;16102;57.138;-2.118;2022-12-05T05:01:53;6.10;1.00
29003;DHT22;16102;57.138;-2.118;2022-12-05T05:04:28;6.10;1.00
29003;DHT22;16102;57.138;-2.118;2022-12-05T05:06:57;6.00;1.00
29003;DHT22;16102;57.138;-2.118;2022-12-05T05:09:24;6.00;1.00
29003;DHT22;16102;57.138;-2.118;2022-12-05T05:11:51;6.00;1.00
29003;DHT22;16102;57.138;-2.118;2022-12-05T05:14:18;6.00;1.00
29003;DHT22;16102;57.138;-2.118;2022-12-05T05:16:46;6.00;1.00
29003;DHT22;16102;57.138;-2.118;2022-12-05T05:19:14;6.00;1.00
29003;DHT22;16102;57.138;-2.118;2022-12-05T05:21:41;6.10;1.00
29003;DHT22;16102;57.138;-2.118;2022-12-05T05:24:10;6.10;1.00
29003;DHT22;16102;57.138;-2.118;2022-12-05T05:26:39;6.10;1.00
29003;DHT22;16102;57.138;-2.118;2022-12-05T05:29:07;6.10;1.00
29003;DHT22;16102;57.138;-2.118;2022-12-05T05:31:36;6.00;1.00
29003;DHT22;16102;57.138;-2.118;2022-12-05T05:34:04;5.80;1.00
29003;DHT22;16102;57.138;-2.118;2022-12-05T05:36:36;5.70;1.00
29003;DHT22;16102;57.138;-2.118;2022-12-05T05:39:04;5.60;1.00
29003;DHT22;16102;57.138;-2.118;2022-12-05T05:41:34;5.50;1.00
29003;DHT22;16102;57.138;-2.118;2022-12-05T05:44:02;5.50;1.00
29003;DHT22;16102;57.138;-2.118;2022-12-05T05:46:31;5.40;1.00
29003;DHT22;16102;57.138;-2.118;2022-12-05T05:48:59;5.30;1.00
29003;DHT22;16102;57.138;-2.118;2022-12-05T05:51:26;5.30;1.00
29003;DHT22;16102;57.138;-2.118;2022-12-05T05:53:55;5.30;1.00
29003;DHT22;16102;57.138;-2.118;2022-12-05T05:56:23;5.20;1.00
29003;DHT22;16102;57.138;-2.118;2022-12-05T05:58:58;5.20;1.00
29003;DHT22;16102;57.138;-2.118;2022-12-05T06:01:29;5.20;1.00
29003;DHT22;16102;57.138;-2.118;2022-12-05T06:03:56;5.10;1.00
29003;DHT22;16102;57.138;-2.118;2022-12-05T06:06:24;5.20;1.00
29003;DHT22;16102;57.138;-2.118;2022-12-05T06:08:51;5.20;1.00
29003;DHT22;16102;57.138;-2.118;2022-12-05T06:11:20;5.20;1.00
29003;DHT22;16102;57.138;-2.118;2022-12-05T06:13:56;5.20;1.00
29003;DHT22;16102;57.138;-2.118;2022-12-05T06:16:24;5.30;1.00
29003;DHT22;16102;57.138;-2.118;2022-12-05T06:18:51;5.40;1.00
29003;DHT22;16102;57.138;-2.118;2022-12-05T06:21:19;5.20;1.00
29003;DHT22;16102;57.138;-2.118;2022-12-05T06:23:47;5.20;1.00
29003;DHT22;16102;57.138;-2.118;2022-12-05T06:26:16;5.10;1.00
29003;DHT22;16102;57.138;-2.118;2022-12-05T06:28:44;5.10;1.00
29003;DHT22;16102;57.138;-2.118;2022-12-05T06:31:13;5.10;1.00
29003;DHT22;16102;57.138;-2.118;2022-12-05T06:33:41;5.10;1.00
29003;DHT22;16102;57.138;-2.118;2022-12-05T06:36:11;5.10;1.00
29003;DHT22;16102;57.138;-2.118;2022-12-05T06:38:38;5.20;1.00
29003;DHT22;16102;57.138;-2.118;2022-12-05T06:41:11;5.10;1.00
29003;DHT22;16102;57.138;-2.118;2022-12-05T06:43:39;5.10;1.00
29003;DHT22;16102;57.138;-2.118;2022-12-05T06:46:08;5.00;1.00
29003;DHT22;16102;57.138;-2.118;2022-12-05T06:48:35;5.00;1.00
29003;DHT22;16102;57.138;-2.118;2022-12-05T06:51:03;4.90;1.00
29003;DHT22;16102;57.138;-2.118;2022-12-05T06:53:30;4.90;1.00
29003;DHT22;16102;57.138;-2.118;2022-12-05T06:56:02;4.80;1.00
29003;DHT22;16102;57.138;-2.118;2022-12-05T06:58:29;4.80;1.00
29003;DHT22;16102;57.138;-2.118;2022-12-05T07:00:56;4.80;1.00
29003;DHT22;16102;57.138;-2.118;2022-12-05T07:03:42;4.70;1.00
29003;DHT22;16102;57.138;-2.118;2022-12-05T07:06:10;4.70;1.00
29003;DHT22;16102;57.138;-2.118;2022-12-05T07:08:37;4.70;1.00
29003;DHT22;16102;57.138;-2.118;2022-12-05T07:11:04;4.70;1.00
29003;DHT22;16102;57.138;-2.118;2022-12-05T07:13:31;4.70;1.00
29003;DHT22;16102;57.138;-2.118;2022-12-05T07:15:59;4.70;1.00
29003;DHT22;16102;57.138;-2.118;2022-12-05T07:18:26;4.80;1.00
29003;DHT22;16102;57.138;-2.118;2022-12-05T07:20:59;4.80;1.00
29003;DHT22;16102;57.138;-2.118;2022-12-05T07:23:37;4.80;1.00
29003;DHT22;16102;57.138;-2.118;2022-12-05T07:26:09;4.80;1.00
29003;DHT22;16102;57.138;-2.118;2022-12-05T07:28:36;4.80;1.00
29003;DHT22;16102;57.138;-2.118;2022-12-05T07:31:05;4.90;1.00
29003;DHT22;16102;57.138;-2.118;2022-12-05T07:33:33;4.90;1.00
29003;DHT22;16102;57.138;-2.118;2022-12-05T07:36:12;5.00;1.00
29003;DHT22;16102;57.138;-2.118;2022-12-05T07:38:40;5.00;1.00
29003;DHT22;16102;57.138;-2.118;2022-12-05T07:41:24;5.10;1.00
29003;DHT22;16102;57.138;-2.118;2022-12-05T07:43:52;5.10;1.00
29003;DHT22;16102;57.138;-2.118;2022-12-05T07:46:21;5.10;1.00
29003;DHT22;16102;57.138;-2.118;2022-12-05T07:48:48;5.10;1.00
29003;DHT22;16102;57.138;-2.118;2022-12-05T07:51:17;5.10;1.00
29003;DHT22;16102;57.138;-2.118;2022-12-05T07:53:44;5.10;1.00
29003;DHT22;16102;57.138;-2.118;2022-12-05T07:56:13;5.10;1.00
29003;DHT22;16102;57.138;-2.118;2022-12-05T07:58:47;5.10;1.00
29003;DHT22;16102;57.138;-2.118;2022-12-05T08:03:43;5.00;1.00
29003;DHT22;16102;57.138;-2.118;2022-12-05T08:06:13;5.00;1.00
29003;DHT22;16102;57.138;-2.118;2022-12-05T08:08:41;4.90;1.00
29003;DHT22;16102;57.138;-2.118;2022-12-05T08:11:15;4.90;1.00
29003;DHT22;16102;57.138;-2.118;2022-12-05T08:13:43;4.90;1.00
29003;DHT22;16102;57.138;-2.118;2022-12-05T08:16:13;4.80;1.00
29003;DHT22;16102;57.138;-2.118;2022-12-05T08:18:40;4.80;1.00
29003;DHT22;16102;57.138;-2.118;2022-12-05T08:21:13;4.80;1.00
29003;DHT22;16102;57.138;-2.118;2022-12-05T08:23:41;4.80;1.00
29003;DHT22;16102;57.138;-2.118;2022-12-05T08:26:09;4.80;1.00
29003;DHT22;16102;57.138;-2.118;2022-12-05T08:28:37;4.80;1.00
29003;DHT22;16102;57.138;-2.118;2022-12-05T08:31:13;4.80;1.00
29003;DHT22;16102;57.138;-2.118;2022-12-05T08:33:41;4.80;1.00
29003;DHT22;16102;57.138;-2.118;2022-12-05T08:36:13;4.80;1.00
29003;DHT22;16102;57.138;-2.118;2022-12-05T08:38:42;4.80;1.00
29003;DHT22;16102;57.138;-2.118;2022-12-05T08:41:12;4.90;1.00
29003;DHT22;16102;57.138;-2.118;2022-12-05T08:43:40;4.90;1.00
29003;DHT22;16102;57.138;-2.118;2022-12-05T08:46:07;4.90;1.00
29003;DHT22;16102;57.138;-2.118;2022-12-05T08:48:35;4.90;1.00
29003;DHT22;16102;57.138;-2.118;2022-12-05T08:51:07;5.00;1.00
29003;DHT22;16102;57.138;-2.118;2022-12-05T08:53:35;5.00;1.00
29003;DHT22;16102;57.138;-2.118;2022-12-05T08:56:10;5.00;1.00
29003;DHT22;16102;57.138;-2.118;2022-12-05T08:58:37;5.00;1.00
29003;DHT22;16102;57.138;-2.118;2022-12-05T09:01:13;5.10;1.00
29003;DHT22;16102;57.138;-2.118;2022-12-05T09:03:41;5.20;1.00
29003;DHT22;16102;57.138;-2.118;2022-12-05T09:06:16;5.20;1.00
29003;DHT22;16102;57.138;-2.118;2022-12-05T09:08:44;5.20;1.00
29003;DHT22;16102;57.138;-2.118;2022-12-05T09:13:39;5.30;1.00
29003;DHT22;16102;57.138;-2.118;2022-12-05T09:16:09;5.30;1.00
29003;DHT22;16102;57.138;-2.118;2022-12-05T09:18:37;5.30;1.00
29003;DHT22;16102;57.138;-2.118;2022-12-05T09:21:11;5.30;1.00
29003;DHT22;16102;57.138;-2.118;2022-12-05T09:23:38;5.40;1.00
29003;DHT22;16102;57.138;-2.118;2022-12-05T09:26:08;5.40;1.00
29003;DHT22;16102;57.138;-2.118;2022-12-05T09:28:35;5.40;1.00
29003;DHT22;16102;57.138;-2.118;2022-12-05T09:31:05;5.40;1.00
29003;DHT22;16102;57.138;-2.118;2022-12-05T09:33:35;5.40;1.00
29003;DHT22;16102;57.138;-2.118;2022-12-05T09:36:06;5.40;1.00
29003;DHT22;16102;57.138;-2.118;2022-12-05T09:38:34;5.30;1.00
29003;DHT22;16102;57.138;-2.118;2022-12-05T09:50:05;5.30;1.00
29003;DHT22;16102;57.138;-2.118;2022-12-05T09:52:42;5.30;1.00
29003;DHT22;16102;57.138;-2.118;2022-12-05T09:55:13;5.30;1.00
29003;DHT22;16102;57.138;-2.118;2022-12-05T09:57:50;5.20;1.00
29003;DHT22;16102;57.138;-2.118;2022-12-05T10:00:18;5.30;1.00
29003;DHT22;16102;57.138;-2.118;2022-12-05T10:05:45;5.30;1.00
29003;DHT22;16102;57.138;-2.118;2022-12-05T10:08:20;5.30;1.00
29003;DHT22;16102;57.138;-2.118;2022-12-05T10:11:04;5.30;1.00
29003;DHT22;16102;57.138;-2.118;2022-12-05T10:16:30;5.30;1.00
29003;DHT22;16102;57.138;-2.118;2022-12-05T10:19:02;5.40;1.00
29003;DHT22;16102;57.138;-2.118;2022-12-05T10:21:48;5.40;1.00
29003;DHT22;16102;57.138;-2.118;2022-12-05T10:24:32;5.40;1.00
29003;DHT22;16102;57.138;-2.118;2022-12-05T10:27:07;5.40;1.00
29003;DHT22;16102;57.138;-2.118;2022-12-05T10:29:44;5.50;1.00
29003;DHT22;16102;57.138;-2.118;2022-12-05T10:32:19;5.50;1.00
29003;DHT22;16102;57.138;-2.118;2022-12-05T10:34:49;5.40;1.00
29003;DHT22;16102;57.138;-2.118;2022-12-05T10:37:19;5.40;1.00
29003;DHT22;16102;57.138;-2.118;2022-12-05T10:39:48;5.40;1.00
29003;DHT22;16102;57.138;-2.118;2022-12-05T10:44:47;5.40;1.00
29003;DHT22;16102;57.138;-2.118;2022-12-05T10:47:16;5.40;1.00
29003;DHT22;16102;57.138;-2.118;2022-12-05T10:49:44;5.50;1.00
29003;DHT22;16102;57.138;-2.118;2022-12-05T10:52:12;5.50;1.00
29003;DHT22;16102;57.138;-2.118;2022-12-05T10:54:45;5.60;1.00
29003;DHT22;16102;57.138;-2.118;2022-12-05T10:57:25;5.60;1.00
29003;DHT22;16102;57.138;-2.118;2022-12-05T10:59:53;5.60;1.00
29003;DHT22;16102;57.138;-2.118;2022-12-05T11:02:25;5.70;1.00
29003;DHT22;16102;57.138;-2.118;2022-12-05T11:04:53;5.80;1.00
29003;DHT22;16102;57.138;-2.118;2022-12-05T11:10:35;5.90;1.00
29003;DHT22;16102;57.138;-2.118;2022-12-05T11:13:22;5.90;1.00
29003;DHT22;16102;57.138;-2.118;2022-12-05T11:15:49;5.90;1.00
29003;DHT22;16102;57.138;-2.118;2022-12-05T11:18:26;5.90;1.00
29003;DHT22;16102;57.138;-2.118;2022-12-05T11:20:55;5.90;1.00
29003;DHT22;16102;57.138;-2.118;2022-12-05T11:23:27;5.90;1.00
29003;DHT22;16102;57.138;-2.118;2022-12-05T11:25:56;6.00;1.00
29003;DHT22;16102;57.138;-2.118;2022-12-05T11:28:33;6.10;1.00
29003;DHT22;16102;57.138;-2.118;2022-12-05T11:36:47;6.10;1.00
29003;DHT22;16102;57.138;-2.118;2022-12-05T11:39:15;6.00;1.00
29003;DHT22;16102;57.138;-2.118;2022-12-05T11:44:54;6.00;1.00
29003;DHT22;16102;57.138;-2.118;2022-12-05T11:50:41;6.60;1.00
29003;DHT22;16102;57.138;-2.118;2022-12-05T12:11:02;6.50;1.00
29003;DHT22;16102;57.138;-2.118;2022-12-05T12:21:16;6.50;1.00
29003;DHT22;16102;57.138;-2.118;2022-12-05T12:35:28;6.50;1.00
29003;DHT22;16102;57.138;-2.118;2022-12-05T12:40:44;6.50;1.00
29003;DHT22;16102;57.138;-2.118;2022-12-05T12:43:25;6.50;1.00
29003;DHT22;16102;57.138;-2.118;2022-12-05T12:52:20;6.50;1.00
29003;DHT22;16102;57.138;-2.118;2022-12-05T12:55:17;6.40;1.00
29003;DHT22;16102;57.138;-2.118;2022-12-05T13:06:06;6.50;1.00
29003;DHT22;16102;57.138;-2.118;2022-12-05T13:11:13;6.60;1.00
29003;DHT22;16102;57.138;-2.118;2022-12-05T13:14:00;7.80;1.00
29003;DHT22;16102;57.138;-2.118;2022-12-05T13:16:29;8.80;1.00
29003;DHT22;16102;57.138;-2.118;2022-12-05T13:18:59;8.70;1.00
29003;DHT22;16102;57.138;-2.118;2022-12-05T13:21:27;8.10;1.00
29003;DHT22;16102;57.138;-2.118;2022-12-05T13:23:56;7.70;1.00
29003;DHT22;16102;57.138;-2.118;2022-12-05T13:26:30;7.40;1.00
29003;DHT22;16102;57.138;-2.118;2022-12-05T13:29:00;7.30;1.00
29003;DHT22;16102;57.138;-2.118;2022-12-05T13:31:40;7.20;1.00
29003;DHT22;16102;57.138;-2.118;2022-12-05T13:34:38;7.10;1.00
29003;DHT22;16102;57.138;-2.118;2022-12-05T13:37:36;7.20;1.00
29003;DHT22;16102;57.138;-2.118;2022-12-05T13:40:49;7.30;1.00
29003;DHT22;16102;57.138;-2.118;2022-12-05T13:43:41;8.00;1.00
29003;DHT22;16102;57.138;-2.118;2022-12-05T13:46:26;8.30;1.00
29003;DHT22;16102;57.138;-2.118;2022-12-05T13:49:02;8.00;1.00
29003;DHT22;16102;57.138;-2.118;2022-12-05T13:51:35;7.80;1.00
29003;DHT22;16102;57.138;-2.118;2022-12-05T13:54:13;7.70;1.00
29003;DHT22;16102;57.138;-2.118;2022-12-05T14:07:41;7.10;1.00
29003;DHT22;16102;57.138;-2.118;2022-12-05T14:10:17;7.10;1.00
29003;DHT22;16102;57.138;-2.118;2022-12-05T14:12:59;7.00;1.00
29003;DHT22;16102;57.138;-2.118;2022-12-05T14:32:36;7.90;1.00
29003;DHT22;16102;57.138;-2.118;2022-12-05T14:35:11;8.10;1.00
29003;DHT22;16102;57.138;-2.118;2022-12-05T14:37:56;8.40;1.00
29003;DHT22;16102;57.138;-2.118;2022-12-05T14:40:33;8.10;1.00
29003;DHT22;16102;57.138;-2.118;2022-12-05T14:45:43;7.30;1.00
29003;DHT22;16102;57.138;-2.118;2022-12-05T14:50:50;7.10;1.00
29003;DHT22;16102;57.138;-2.118;2022-12-05T14:53:34;7.00;1.00
29003;DHT22;16102;57.138;-2.118;2022-12-05T14:56:13;7.00;1.00
29003;DHT22;16102;57.138;-2.118;2022-12-05T15:06:24;6.60;1.00
29003;DHT22;16102;57.138;-2.118;2022-12-05T15:08:54;6.50;1.00
29003;DHT22;16102;57.138;-2.118;2022-12-05T15:11:42;6.50;1.00
29003;DHT22;16102;57.138;-2.118;2022-12-05T15:14:14;6.40;1.00
29003;DHT22;16102;57.138;-2.118;2022-12-05T15:16:45;6.40;1.00
29003;DHT22;16102;57.138;-2.118;2022-12-05T15:19:18;6.40;1.00
29003;DHT22;16102;57.138;-2.118;2022-12-05T15:21:53;6.40;1.00
29003;DHT22;16102;57.138;-2.118;2022-12-05T15:24:22;6.40;1.00
29003;DHT22;16102;57.138;-2.118;2022-12-05T15:26:57;6.30;1.00
29003;DHT22;16102;57.138;-2.118;2022-12-05T15:29:28;6.40;1.00
29003;DHT22;16102;57.138;-2.118;2022-12-05T15:32:03;6.30;1.00
29003;DHT22;16102;57.138;-2.118;2022-12-05T15:40:14;6.30;1.00
29003;DHT22;16102;57.138;-2.118;2022-12-05T15:42:50;6.20;1.00
29003;DHT22;16102;57.138;-2.118;2022-12-05T15:47:54;6.20;1.00
29003;DHT22;16102;57.138;-2.118;2022-12-05T15:50:32;6.20;1.00
29003;DHT22;16102;57.138;-2.118;2022-12-05T15:55:40;6.20;1.00
29003;DHT22;16102;57.138;-2.118;2022-12-05T15:58:27;6.10;1.00
29003;DHT22;16102;57.138;-2.118;2022-12-05T16:01:09;6.10;1.00
29003;DHT22;16102;57.138;-2.118;2022-12-05T16:03:49;6.10;1.00
29003;DHT22;16102;57.138;-2.118;2022-12-05T16:06:29;6.10;1.00
29003;DHT22;16102;57.138;-2.118;2022-12-05T16:08:58;6.10;1.00
29003;DHT22;16102;57.138;-2.118;2022-12-05T16:11:26;6.10;1.00
29003;DHT22;16102;57.138;-2.118;2022-12-05T16:14:00;6.10;1.00
29003;DHT22;16102;57.138;-2.118;2022-12-05T16:16:34;6.10;1.00
29003;DHT22;16102;57.138;-2.118;2022-12-05T16:19:14;6.00;1.00
29003;DHT22;16102;57.138;-2.118;2022-12-05T16:21:44;6.00;1.00
29003;DHT22;16102;57.138;-2.118;2022-12-05T16:24:20;6.00;1.00
29003;DHT22;16102;57.138;-2.118;2022-12-05T16:27:03;5.90;1.00
29003;DHT22;16102;57.138;-2.118;2022-12-05T16:29:34;5.90;1.00
29003;DHT22;16102;57.138;-2.118;2022-12-05T16:32:03;5.90;1.00
29003;DHT22;16102;57.138;-2.118;2022-12-05T16:34:32;5.90;1.00
29003;DHT22;16102;57.138;-2.118;2022-12-05T16:36:59;5.90;1.00
29003;DHT22;16102;57.138;-2.118;2022-12-05T16:39:27;5.90;1.00
29003;DHT22;16102;57.138;-2.118;2022-12-05T16:41:54;5.90;1.00
29003;DHT22;16102;57.138;-2.118;2022-12-05T16:46:55;5.80;1.00
29003;DHT22;16102;57.138;-2.118;2022-12-05T16:49:35;5.80;1.00
29003;DHT22;16102;57.138;-2.118;2022-12-05T16:52:13;5.80;1.00
29003;DHT22;16102;57.138;-2.118;2022-12-05T16:54:42;5.80;1.00
29003;DHT22;16102;57.138;-2.118;2022-12-05T16:57:13;5.80;1.00
29003;DHT22;16102;57.138;-2.118;2022-12-05T16:59:41;5.70;1.00
29003;DHT22;16102;57.138;-2.118;2022-12-05T17:02:14;5.70;1.00
29003;DHT22;16102;57.138;-2.118;2022-12-05T17:04:42;5.70;1.00
29003;DHT22;16102;57.138;-2.118;2022-12-05T17:07:09;5.60;1.00
29003;DHT22;16102;57.138;-2.118;2022-12-05T17:09:36;5.60;4.30
29003;DHT22;16102;57.138;-2.118;2022-12-05T17:12:09;5.60;10.40
29003;DHT22;16102;57.138;-2.118;2022-12-05T17:14:38;5.50;17.00
29003;DHT22;16102;57.138;-2.118;2022-12-05T17:17:12;5.50;24.40
29003;DHT22;16102;57.138;-2.118;2022-12-05T17:19:39;5.50;29.40
29003;DHT22;16102;57.138;-2.118;2022-12-05T17:22:06;5.50;36.90
29003;DHT22;16102;57.138;-2.118;2022-12-05T17:24:33;5.40;44.70
29003;DHT22;16102;57.138;-2.118;2022-12-05T17:27:00;5.40;50.60
29003;DHT22;16102;57.138;-2.118;2022-12-05T17:29:27;5.40;58.40
29003;DHT22;16102;57.138;-2.118;2022-12-05T17:32:01;5.30;67.40
29003;DHT22;16102;57.138;-2.118;2022-12-05T17:34:28;5.30;74.40
29003;DHT22;16102;57.138;-2.118;2022-12-05T17:36:55;5.30;82.80
29003;DHT22;16102;57.138;-2.118;2022-12-05T17:39:22;5.40;89.80
29003;DHT22;16102;57.138;-2.118;2022-12-05T17:41:54;5.40;90.60
29003;DHT22;16102;57.138;-2.118;2022-12-05T17:44:23;5.40;84.50
29003;DHT22;16102;57.138;-2.118;2022-12-05T17:46:50;5.40;77.40
29003;DHT22;16102;57.138;-2.118;2022-12-05T17:49:17;5.40;70.20
29003;DHT22;16102;57.138;-2.118;2022-12-05T17:51:45;5.40;87.90
29003;DHT22;16102;57.138;-2.118;2022-12-05T17:54:33;5.30;62.10
29003;DHT22;16102;57.138;-2.118;2022-12-05T17:57:00;5.30;59.40
29003;DHT22;16102;57.138;-2.118;2022-12-05T17:59:27;5.30;56.90
29003;DHT22;16102;57.138;-2.118;2022-12-05T18:01:54;5.30;56.60
29003;DHT22;16102;57.138;-2.118;2022-12-05T18:04:21;5.20;54.80
29003;DHT22;16102;57.138;-2.118;2022-12-05T18:06:49;5.30;57.70
29003;DHT22;16102;57.138;-2.118;2022-12-05T18:09:16;5.40;57.80
29003;DHT22;16102;57.138;-2.118;2022-12-05T18:11:43;5.40;65.90
29003;DHT22;16102;57.138;-2.118;2022-12-05T18:14:10;5.40;72.60
29003;DHT22;16102;57.138;-2.118;2022-12-05T18:16:37;5.40;68.70
29003;DHT22;16102;57.138;-2.118;2022-12-05T18:19:04;5.50;62.70
29003;DHT22;16102;57.138;-2.118;2022-12-05T18:21:33;5.40;54.70
29003;DHT22;16102;57.138;-2.118;2022-12-05T18:24:01;5.50;42.80
29003;DHT22;16102;57.138;-2.118;2022-12-05T18:26:28;5.50;35.70
29003;DHT22;16102;57.138;-2.118;2022-12-05T18:28:55;5.50;30.10
29003;DHT22;16102;57.138;-2.118;2022-12-05T18:31:23;5.40;28.80
29003;DHT22;16102;57.138;-2.118;2022-12-05T18:33:50;5.40;30.00
29003;DHT22;16102;57.138;-2.118;2022-12-05T18:36:19;5.30;30.60
29003;DHT22;16102;57.138;-2.118;2022-12-05T18:38:54;5.30;32.20
29003;DHT22;16102;57.138;-2.118;2022-12-05T18:41:24;5.20;33.40
29003;DHT22;16102;57.138;-2.118;2022-12-05T18:43:53;5.20;35.20
29003;DHT22;16102;57.138;-2.118;2022-12-05T18:46:20;5.10;37.00
29003;DHT22;16102;57.138;-2.118;2022-12-05T18:48:47;5.10;38.60
29003;DHT22;16102;57.138;-2.118;2022-12-05T18:51:22;5.10;39.40
29003;DHT22;16102;57.138;-2.118;2022-12-05T18:53:51;5.10;37.50
29003;DHT22;16102;57.138;-2.118;2022-12-05T18:56:21;5.00;37.40
29003;DHT22;16102;57.138;-2.118;2022-12-05T18:58:57;5.10;34.50
29003;DHT22;16102;57.138;-2.118;2022-12-05T19:01:26;5.00;30.30
29003;DHT22;16102;57.138;-2.118;2022-12-05T19:03:55;5.10;26.30
29003;DHT22;16102;57.138;-2.118;2022-12-05T19:06:25;5.10;22.30
29003;DHT22;16102;57.138;-2.118;2022-12-05T19:08:53;5.00;19.00
29003;DHT22;16102;57.138;-2.118;2022-12-05T19:11:21;5.00;18.70
29003;DHT22;16102;57.138;-2.118;2022-12-05T19:13:48;5.00;17.10
29003;DHT22;16102;57.138;-2.118;2022-12-05T19:16:15;5.00;16.90
29003;DHT22;16102;57.138;-2.118;2022-12-05T19:18:44;5.00;16.80
29003;DHT22;16102;57.138;-2.118;2022-12-05T19:21:12;5.00;17.40
29003;DHT22;16102;57.138;-2.118;2022-12-05T19:23:40;4.90;18.40
29003;DHT22;16102;57.138;-2.118;2022-12-05T19:26:08;4.90;19.70
29003;DHT22;16102;57.138;-2.118;2022-12-05T19:28:36;4.90;21.30